Chilhowee, Missouri
Current Conditions -  °F | °C
As of 4:55 PM on Wednesday 22 Oct 2014 (Local Time) from KRCM Reporting Station
Scattered Clouds Scattered Clouds  
Wind Chill: 68°   Ceiling: Unl
Heat Index: 68°   Visibility: 10mi
Dew Point: 48°   Wind: 8mph
Humidity: 49%   Direction: 130°SE
Pressure: 30.13"   Gusts: NA
Location:  38.59°N, 93.85°W
Report Text: KRCM 222155Z AUTO 13007KT 10SM SCT041 20/09 A3013 RMK AO2
Loading
Personal Weather Stations






























Interactive Weather Map
Tropical Storm Tracking
New forecast layout! Learn more

10-Day Weather Forecast

Advertisements
Track Severe Weather on mobile